createdAt,value
2022-11-10T00:00:23.335Z,12.97
2022-11-10T00:02:51.609Z,7.93
2022-11-10T00:05:19.815Z,12.53
2022-11-10T00:07:49.392Z,9.10
2022-11-10T00:10:17.788Z,9.00
2022-11-10T00:12:46.041Z,11.37
2022-11-10T00:15:31.625Z,8.13
2022-11-10T00:18:02.561Z,9.97
2022-11-10T00:20:31.052Z,9.30
2022-11-10T00:23:00.637Z,8.47
2022-11-10T00:25:29.344Z,8.47
2022-11-10T00:27:59.921Z,11.73
2022-11-10T00:30:28.411Z,9.30
2022-11-10T00:32:56.652Z,10.43
2022-11-10T00:35:24.864Z,12.53
2022-11-10T00:37:53.126Z,13.87
2022-11-10T00:40:22.892Z,12.10
2022-11-10T00:42:51.220Z,12.80
2022-11-10T00:45:19.441Z,10.83
2022-11-10T00:47:47.681Z,11.13
2022-11-10T00:50:16.141Z,10.13
2022-11-10T00:52:44.325Z,15.07
2022-11-10T00:55:12.519Z,8.73
2022-11-10T00:57:42.150Z,12.20
2022-11-10T01:00:11.038Z,6.97
2022-11-10T01:02:39.281Z,10.50
2022-11-10T01:05:07.999Z,10.07
2022-11-10T01:07:36.246Z,12.73
2022-11-10T01:10:04.578Z,13.27
2022-11-10T01:12:33.062Z,11.77
2022-11-10T01:15:02.622Z,15.07
2022-11-10T01:17:31.648Z,11.17
2022-11-10T01:19:59.867Z,10.77
2022-11-10T01:22:28.361Z,12.97
2022-11-10T01:24:56.634Z,12.37
2022-11-10T01:27:24.925Z,14.13
2022-11-10T01:29:53.133Z,16.70
2022-11-10T01:32:22.857Z,13.77
2022-11-10T01:34:51.085Z,10.53
2022-11-10T01:37:19.311Z,12.27
2022-11-10T01:39:47.597Z,16.90
2022-11-10T01:42:15.921Z,12.40
2022-11-10T01:44:44.187Z,13.40
2022-11-10T01:47:12.367Z,14.67
2022-11-10T01:49:41.975Z,12.33
2022-11-10T01:52:11.790Z,12.03
2022-11-10T01:54:41.415Z,14.00
2022-11-10T01:57:11.528Z,13.17
2022-11-10T01:59:41.379Z,13.23
2022-11-10T02:02:13.198Z,14.20
2022-11-10T02:04:43.170Z,13.57
2022-11-10T02:07:12.692Z,11.20
2022-11-10T02:09:40.996Z,16.23
2022-11-10T02:12:09.321Z,15.27
2022-11-10T02:14:38.415Z,16.93
2022-11-10T02:17:06.617Z,16.03
2022-11-10T02:19:40.924Z,13.93
2022-11-10T02:22:10.570Z,16.67
2022-11-10T02:24:38.827Z,15.60
2022-11-10T02:27:07.044Z,14.60
2022-11-10T02:29:35.501Z,14.40
2022-11-10T02:32:03.749Z,13.97
2022-11-10T02:34:32.004Z,14.33
2022-11-10T02:37:00.210Z,13.77
2022-11-10T02:39:29.774Z,13.33
2022-11-10T02:41:58.137Z,15.00
2022-11-10T02:44:26.395Z,14.10
2022-11-10T02:46:54.755Z,12.17
2022-11-10T02:49:22.964Z,14.33
2022-11-10T02:51:51.134Z,16.43
2022-11-10T02:54:19.641Z,14.10
2022-11-10T02:56:49.223Z,14.77
2022-11-10T02:59:17.435Z,12.17
2022-11-10T03:01:45.683Z,18.00
2022-11-10T03:04:13.998Z,24.43
2022-11-10T03:06:42.200Z,16.10
2022-11-10T03:09:10.483Z,9.57
2022-11-10T03:11:38.627Z,16.03
2022-11-10T03:14:08.280Z,15.47
2022-11-10T03:16:36.474Z,10.67
2022-11-10T03:19:04.757Z,12.90
2022-11-10T03:21:32.959Z,14.63
2022-11-10T03:24:01.218Z,14.23
2022-11-10T03:26:29.634Z,14.47
2022-11-10T03:28:57.983Z,16.23
2022-11-10T03:31:27.615Z,19.67
2022-11-10T03:33:55.818Z,21.40
2022-11-10T03:36:24.065Z,17.33
2022-11-10T03:38:52.253Z,18.00
2022-11-10T03:41:21.058Z,18.00
2022-11-10T03:43:49.541Z,10.60
2022-11-10T03:46:17.962Z,14.93
2022-11-10T03:48:52.896Z,14.37
2022-11-10T03:51:21.850Z,15.67
2022-11-10T03:53:50.097Z,11.77
2022-11-10T03:56:18.329Z,10.47
2022-11-10T03:58:46.583Z,15.77
2022-11-10T04:01:14.877Z,10.87
2022-11-10T04:03:46.200Z,13.60
2022-11-10T04:06:36.267Z,11.03
2022-11-10T04:09:04.668Z,17.43
2022-11-10T04:11:50.974Z,16.07
2022-11-10T04:14:37.277Z,11.23
2022-11-10T04:17:05.762Z,16.13
2022-11-10T04:19:34.047Z,9.40
2022-11-10T04:22:03.655Z,14.07
2022-11-10T04:24:31.866Z,15.23
2022-11-10T04:27:00.052Z,14.47
2022-11-10T04:29:28.481Z,14.80
2022-11-10T04:31:56.720Z,14.63
2022-11-10T04:34:24.885Z,15.47
2022-11-10T04:36:53.180Z,15.20
2022-11-10T04:39:22.768Z,18.10
2022-11-10T04:41:50.958Z,17.20
2022-11-10T04:44:19.211Z,18.10
2022-11-10T04:46:47.419Z,10.17
2022-11-10T04:49:15.666Z,20.63
2022-11-10T04:51:43.956Z,19.30
2022-11-10T04:54:12.652Z,13.77
2022-11-10T04:56:42.396Z,16.27
2022-11-10T04:59:10.705Z,13.20
2022-11-10T05:01:38.927Z,18.57
2022-11-10T05:04:07.265Z,17.73
2022-11-10T05:06:35.523Z,17.87
2022-11-10T05:09:03.969Z,13.53
2022-11-10T05:11:32.173Z,17.00
2022-11-10T05:14:01.805Z,15.00
2022-11-10T05:16:30.039Z,14.40
2022-11-10T05:18:58.316Z,11.37
2022-11-10T05:21:26.607Z,12.87
2022-11-10T05:23:54.836Z,16.07
2022-11-10T05:26:23.046Z,14.07
2022-11-10T05:28:51.328Z,12.53
2022-11-10T05:31:20.908Z,12.27
2022-11-10T05:33:49.100Z,15.27
2022-11-10T05:36:17.374Z,11.50
2022-11-10T05:38:45.576Z,15.40
2022-11-10T05:41:13.844Z,14.53
2022-11-10T05:43:42.123Z,14.07
2022-11-10T05:46:10.349Z,13.20
2022-11-10T05:48:39.883Z,16.30
2022-11-10T05:51:08.312Z,13.30
2022-11-10T05:53:36.564Z,14.97
2022-11-10T05:56:04.783Z,18.67
2022-11-10T05:58:33.004Z,14.00
2022-11-10T06:01:01.257Z,9.73
2022-11-10T06:03:29.654Z,13.83
2022-11-10T06:05:59.406Z,11.07
2022-11-10T06:08:27.625Z,18.27
2022-11-10T06:10:55.840Z,16.97
2022-11-10T06:13:24.325Z,14.13
2022-11-10T06:15:52.821Z,17.33
2022-11-10T06:18:20.997Z,13.67
2022-11-10T06:20:49.225Z,16.20
2022-11-10T06:23:18.903Z,14.57
2022-11-10T06:25:47.225Z,11.23
2022-11-10T06:28:15.728Z,12.87
2022-11-10T06:30:43.940Z,13.03
2022-11-10T06:33:12.162Z,18.60
2022-11-10T06:35:40.481Z,13.83
2022-11-10T06:38:09.719Z,16.37
2022-11-10T06:40:39.496Z,15.57
2022-11-10T06:43:07.942Z,14.63
2022-11-10T06:45:36.247Z,16.50
2022-11-10T06:48:05.053Z,15.30
2022-11-10T06:50:33.479Z,17.90
2022-11-10T06:53:01.854Z,14.17
2022-11-10T06:55:30.278Z,16.83
2022-11-10T06:57:59.961Z,21.80
2022-11-10T07:00:29.190Z,11.93
2022-11-10T07:03:00.888Z,16.97
2022-11-10T07:05:29.229Z,16.20
2022-11-10T07:07:57.505Z,20.63
2022-11-10T07:10:25.758Z,16.00
2022-11-10T07:12:58.318Z,14.37
2022-11-10T07:15:29.564Z,19.57
2022-11-10T07:17:58.056Z,17.57
2022-11-10T07:20:28.626Z,18.07
2022-11-10T07:23:00.749Z,16.10
2022-11-10T07:25:29.580Z,18.37
2022-11-10T07:27:58.429Z,13.30
2022-11-10T07:30:28.697Z,13.83
2022-11-10T07:33:00.805Z,14.90
2022-11-10T07:35:29.352Z,16.67
2022-11-10T07:37:57.713Z,13.83
2022-11-10T07:40:26.324Z,12.73
2022-11-10T07:42:54.600Z,17.53
2022-11-10T07:45:22.928Z,10.50
2022-11-10T07:47:52.632Z,12.77
2022-11-10T07:50:21.255Z,14.90
2022-11-10T07:52:49.481Z,15.13
2022-11-10T07:55:17.781Z,13.80
2022-11-10T07:57:46.395Z,13.73
2022-11-10T08:00:15.287Z,10.07
2022-11-10T08:02:43.579Z,12.53
2022-11-10T08:05:13.222Z,12.80
2022-11-10T08:07:42.312Z,10.63
2022-11-10T08:10:11.096Z,14.57
2022-11-10T08:12:39.367Z,14.93
2022-11-10T08:15:07.954Z,10.90
2022-11-10T08:17:36.298Z,11.57
2022-11-10T08:20:04.861Z,11.37
2022-11-10T08:22:34.882Z,12.33
2022-11-10T08:25:03.361Z,14.37
2022-11-10T08:27:31.679Z,13.40
2022-11-10T08:30:00.089Z,12.97
2022-11-10T08:32:28.481Z,13.03
2022-11-10T08:34:56.851Z,6.77
2022-11-10T08:37:25.240Z,13.33
2022-11-10T08:39:54.938Z,14.33
2022-11-10T08:42:23.293Z,13.50
2022-11-10T08:44:51.543Z,11.23
2022-11-10T08:47:20.271Z,12.03
2022-11-10T08:49:49.002Z,10.17
2022-11-10T08:52:17.340Z,10.70
2022-11-10T08:54:45.744Z,11.93
2022-11-10T08:57:15.719Z,12.10
2022-11-10T08:59:43.995Z,12.63
2022-11-10T09:02:12.595Z,11.43
2022-11-10T09:04:41.060Z,10.87
2022-11-10T09:07:09.573Z,12.53
2022-11-10T09:09:38.297Z,8.70
2022-11-10T09:12:07.031Z,11.30
2022-11-10T09:14:36.695Z,11.70
2022-11-10T09:17:05.286Z,10.97
2022-11-10T09:19:33.849Z,9.27
2022-11-10T09:22:02.214Z,11.67
2022-11-10T09:24:31.653Z,9.80
2022-11-10T09:27:00.484Z,8.40
2022-11-10T09:29:29.236Z,11.20
2022-11-10T09:31:59.114Z,11.23
2022-11-10T09:34:27.576Z,10.33
2022-11-10T09:36:55.922Z,12.27
2022-11-10T09:39:24.309Z,14.73
2022-11-10T09:41:53.215Z,11.17
2022-11-10T09:44:24.871Z,13.43
2022-11-10T09:46:55.566Z,12.37
2022-11-10T09:49:37.581Z,10.00
2022-11-10T09:52:06.772Z,12.73
2022-11-10T09:54:43.490Z,11.50
2022-11-10T09:57:14.162Z,7.87
2022-11-10T09:59:43.814Z,13.90
2022-11-10T10:02:24.781Z,13.23
2022-11-10T10:05:10.811Z,10.73
2022-11-10T10:07:53.328Z,13.47
2022-11-10T10:13:25.054Z,10.07
2022-11-10T10:16:01.052Z,11.20
2022-11-10T10:18:33.811Z,14.53
2022-11-10T10:21:12.647Z,13.93
2022-11-10T10:26:40.421Z,13.87
2022-11-10T10:29:11.247Z,14.00
2022-11-10T10:31:42.474Z,10.97
2022-11-10T10:34:14.439Z,13.50
2022-11-10T10:36:52.100Z,11.18
2022-11-10T10:39:26.764Z,12.90
2022-11-10T10:41:55.272Z,13.20
2022-11-10T10:44:23.689Z,13.00
2022-11-10T10:46:53.412Z,10.60
2022-11-10T10:49:31.036Z,12.63
2022-11-10T10:52:07.323Z,14.20
2022-11-10T10:54:38.327Z,14.03
2022-11-10T10:57:08.527Z,11.85
2022-11-10T10:59:36.819Z,12.88
2022-11-10T11:02:05.615Z,10.85
2022-11-10T11:04:35.770Z,13.35
2022-11-10T11:07:05.818Z,14.48
2022-11-10T11:09:43.318Z,6.97
2022-11-10T11:12:13.716Z,12.63
2022-11-10T11:14:45.966Z,14.45
2022-11-10T11:17:15.750Z,9.45
2022-11-10T11:19:44.240Z,13.55
2022-11-10T11:22:29.914Z,9.45
2022-11-10T11:25:04.973Z,12.02
2022-11-10T11:27:36.250Z,14.05
2022-11-10T11:30:10.420Z,10.23
2022-11-10T11:32:52.022Z,11.18
2022-11-10T11:35:32.161Z,8.18
2022-11-10T11:38:07.292Z,16.63
2022-11-10T11:40:42.594Z,10.10
2022-11-10T11:43:19.093Z,10.57
2022-11-10T11:45:53.868Z,10.88
2022-11-10T11:48:37.116Z,13.20
2022-11-10T11:51:17.368Z,11.60
2022-11-10T11:53:54.600Z,9.63
2022-11-10T11:56:30.957Z,12.45
2022-11-10T11:59:08.223Z,9.93
2022-11-10T12:01:45.828Z,11.52
2022-11-10T12:04:41.341Z,9.95
2022-11-10T12:07:16.725Z,8.80
2022-11-10T12:09:47.214Z,9.60
2022-11-10T12:12:31.902Z,11.18
2022-11-10T12:15:02.422Z,10.05
2022-11-10T12:17:34.015Z,10.85
2022-11-10T12:20:05.346Z,10.57
2022-11-10T12:22:38.013Z,8.75
2022-11-10T12:25:15.046Z,10.55
2022-11-10T12:27:48.851Z,9.00
2022-11-10T12:30:19.462Z,7.05
2022-11-10T12:32:51.271Z,10.68
2022-11-10T12:35:21.513Z,11.32
2022-11-10T12:37:53.498Z,8.88
2022-11-10T12:40:23.781Z,7.88
2022-11-10T12:42:56.311Z,9.88
2022-11-10T12:45:28.292Z,10.45
2022-11-10T12:47:57.416Z,11.35
2022-11-10T12:50:46.762Z,7.88
2022-11-10T12:53:20.381Z,7.60
2022-11-10T12:55:51.248Z,10.38
2022-11-10T12:58:26.810Z,10.52
2022-11-10T13:01:03.631Z,10.88
2022-11-10T13:03:33.446Z,9.32
2022-11-10T13:06:03.699Z,13.43
2022-11-10T13:08:37.076Z,8.25
2022-11-10T13:11:08.022Z,9.07
2022-11-10T13:13:46.856Z,8.98
2022-11-10T13:16:49.608Z,8.60
2022-11-10T13:19:33.978Z,8.30
2022-11-10T13:22:07.357Z,7.05
2022-11-10T13:24:37.126Z,11.30
2022-11-10T13:27:07.822Z,9.05
2022-11-10T13:29:51.022Z,7.55
2022-11-10T13:32:31.485Z,11.27
2022-11-10T13:35:14.727Z,11.10
2022-11-10T13:37:56.501Z,10.18
2022-11-10T13:40:34.756Z,13.65
2022-11-10T13:43:14.408Z,10.15
2022-11-10T13:45:44.013Z,10.88
2022-11-10T13:48:21.901Z,8.27
2022-11-10T13:50:56.523Z,8.80
2022-11-10T13:53:31.662Z,8.03
2022-11-10T13:56:09.097Z,10.47
2022-11-10T13:58:41.726Z,9.47
2022-11-10T14:01:26.675Z,8.90
2022-11-10T14:04:08.364Z,12.50
2022-11-10T14:06:43.760Z,8.23
2022-11-10T14:09:29.245Z,7.47
2022-11-10T14:12:00.970Z,6.70
2022-11-10T14:14:32.357Z,10.03
2022-11-10T14:17:01.368Z,7.57
2022-11-10T14:19:40.867Z,10.30
2022-11-10T14:22:18.488Z,6.60
2022-11-10T14:24:50.579Z,7.90
2022-11-10T14:27:29.304Z,14.60
2022-11-10T14:30:21.479Z,9.53
2022-11-10T14:32:59.880Z,9.40
2022-11-10T14:35:31.218Z,8.43
2022-11-10T14:38:02.755Z,6.97
2022-11-10T14:40:35.034Z,7.43
2022-11-10T14:43:04.280Z,7.97
2022-11-10T14:45:39.794Z,11.37
2022-11-10T14:48:25.685Z,8.87
2022-11-10T14:50:58.739Z,8.73
2022-11-10T14:53:30.448Z,7.47
2022-11-10T14:56:03.510Z,8.27
2022-11-10T14:58:37.815Z,12.00
2022-11-10T15:01:08.151Z,8.27
2022-11-10T15:03:38.152Z,8.07
2022-11-10T15:06:14.415Z,6.40
2022-11-10T15:08:43.600Z,7.43
2022-11-10T15:11:27.691Z,7.27
2022-11-10T15:13:56.006Z,9.27
2022-11-10T15:16:26.076Z,7.27
2022-11-10T15:18:55.633Z,9.93
2022-11-10T15:21:29.728Z,8.47
2022-11-10T15:23:59.384Z,7.30
2022-11-10T15:26:29.233Z,9.57
2022-11-10T15:28:57.508Z,7.67
2022-11-10T15:31:26.873Z,8.03
2022-11-10T15:33:56.169Z,6.30
2022-11-10T15:36:33.213Z,7.93
2022-11-10T15:39:06.513Z,5.37
2022-11-10T15:41:36.152Z,7.47
2022-11-10T15:44:20.824Z,5.33
2022-11-10T15:46:49.740Z,7.40
2022-11-10T15:49:21.028Z,8.13
2022-11-10T15:51:50.682Z,8.80
2022-11-10T15:54:20.313Z,8.77
2022-11-10T15:56:48.543Z,6.40
2022-11-10T15:59:16.784Z,7.70
2022-11-10T16:01:46.928Z,6.60
2022-11-10T16:04:15.327Z,8.03
2022-11-10T16:06:43.666Z,5.50
2022-11-10T16:09:14.368Z,4.77
2022-11-10T16:11:44.193Z,8.50
2022-11-10T16:14:14.907Z,6.93
2022-11-10T16:16:43.601Z,5.50
2022-11-10T16:19:11.817Z,5.70
2022-11-10T16:21:40.020Z,8.67
2022-11-10T16:24:08.462Z,7.77
2022-11-10T16:26:38.176Z,6.83
2022-11-10T16:29:10.963Z,9.57
2022-11-10T16:31:39.285Z,8.47
2022-11-10T16:34:07.490Z,9.80
2022-11-10T16:36:36.106Z,7.03
2022-11-10T16:39:05.069Z,8.07
2022-11-10T16:41:33.286Z,9.63
2022-11-10T16:44:02.903Z,7.33
2022-11-10T16:46:31.712Z,6.10
2022-11-10T16:49:00.834Z,7.90
2022-11-10T16:51:30.619Z,9.47
2022-11-10T16:53:59.567Z,5.23
2022-11-10T16:56:27.822Z,7.30
2022-11-10T16:58:56.079Z,7.43
2022-11-10T17:01:28.113Z,10.27
2022-11-10T17:03:58.436Z,6.97
2022-11-10T17:06:28.104Z,9.40
2022-11-10T17:08:57.435Z,6.60
2022-11-10T17:11:25.641Z,5.83
2022-11-10T17:13:53.896Z,10.33
2022-11-10T17:16:23.854Z,6.83
2022-11-10T17:18:53.558Z,10.13
2022-11-10T17:21:22.188Z,8.97
2022-11-10T17:23:50.496Z,6.23
2022-11-10T17:26:19.950Z,9.23
2022-11-10T17:28:49.266Z,6.57
2022-11-10T17:31:19.392Z,7.57
2022-11-10T17:33:48.470Z,3.70
2022-11-10T17:36:21.895Z,6.10
2022-11-10T17:38:50.112Z,11.03
2022-11-10T17:41:19.053Z,4.43
2022-11-10T17:43:47.788Z,5.20
2022-11-10T17:46:17.268Z,5.07
2022-11-10T17:48:47.575Z,8.90
2022-11-10T17:51:18.693Z,8.40
2022-11-10T17:53:54.677Z,10.47
2022-11-10T17:56:30.797Z,8.90
2022-11-10T17:58:59.350Z,5.40
2022-11-10T18:01:27.999Z,8.13
2022-11-10T18:03:56.342Z,7.17
2022-11-10T18:06:26.463Z,6.17
2022-11-10T18:08:56.113Z,6.53
2022-11-10T18:11:24.518Z,8.43
2022-11-10T18:13:52.732Z,6.13
2022-11-10T18:16:20.998Z,7.70
2022-11-10T18:18:49.277Z,5.30
2022-11-10T18:21:17.517Z,6.43
2022-11-10T18:23:45.800Z,7.77
2022-11-10T18:26:15.563Z,5.53
2022-11-10T18:28:43.798Z,5.57
2022-11-10T18:31:12.946Z,7.30
2022-11-10T18:33:45.302Z,4.17
2022-11-10T18:36:13.627Z,7.63
2022-11-10T18:38:41.846Z,5.77
2022-11-10T18:41:27.897Z,8.37
2022-11-10T18:43:57.528Z,6.97
2022-11-10T18:46:25.806Z,9.50
2022-11-10T18:48:54.008Z,14.07
2022-11-10T18:51:22.230Z,6.03
2022-11-10T18:53:50.464Z,7.47
2022-11-10T18:56:18.674Z,8.13
2022-11-10T18:58:46.968Z,6.43
2022-11-10T19:01:16.600Z,6.90
2022-11-10T19:03:45.277Z,7.57
2022-11-10T19:06:14.225Z,8.40
2022-11-10T19:08:42.942Z,8.40
2022-11-10T19:11:11.934Z,8.60
2022-11-10T19:13:40.493Z,6.50
2022-11-10T19:16:09.221Z,8.33
2022-11-10T19:18:39.530Z,9.03
2022-11-10T19:21:08.536Z,9.77
2022-11-10T19:23:36.792Z,8.43
2022-11-10T19:26:06.732Z,6.67
2022-11-10T19:28:34.968Z,7.67
2022-11-10T19:31:03.672Z,10.20
2022-11-10T19:33:32.329Z,6.27
2022-11-10T19:36:05.058Z,8.90
2022-11-10T19:38:33.684Z,10.33
2022-11-10T19:41:04.921Z,10.77
2022-11-10T19:43:33.290Z,7.53
2022-11-10T19:46:03.957Z,8.87
2022-11-10T19:48:32.702Z,6.53
2022-11-10T19:51:01.545Z,8.93
2022-11-10T19:53:31.557Z,9.53
2022-11-10T19:56:03.085Z,9.27
2022-11-10T19:58:31.560Z,8.07
2022-11-10T20:01:01.979Z,8.07
2022-11-10T20:03:30.758Z,8.53
2022-11-10T20:06:00.040Z,8.47
2022-11-10T20:08:28.625Z,7.37
2022-11-10T20:11:00.346Z,8.70
2022-11-10T20:13:28.739Z,7.03
2022-11-10T20:15:57.047Z,7.20
2022-11-10T20:18:25.290Z,7.93
2022-11-10T20:20:53.526Z,10.00
2022-11-10T20:23:21.952Z,9.33
2022-11-10T20:25:50.380Z,7.87
2022-11-10T20:28:19.995Z,5.67
2022-11-10T20:30:48.553Z,6.77
2022-11-10T20:33:16.751Z,7.27
2022-11-10T20:35:44.977Z,6.00
2022-11-10T20:38:13.261Z,7.93
2022-11-10T20:40:44.825Z,9.40
2022-11-10T20:43:14.948Z,9.73
2022-11-10T20:45:44.811Z,7.27
2022-11-10T20:48:13.064Z,7.43
2022-11-10T20:50:41.986Z,7.63
2022-11-10T20:53:10.211Z,6.87
2022-11-10T20:55:53.554Z,9.10
2022-11-10T20:58:22.614Z,6.33
2022-11-10T21:00:53.864Z,5.47
2022-11-10T21:03:23.019Z,7.47
2022-11-10T21:05:55.537Z,5.07
2022-11-10T21:08:23.996Z,6.70
2022-11-10T21:10:52.907Z,5.33
2022-11-10T21:13:22.035Z,5.57
2022-11-10T21:15:52.601Z,7.13
2022-11-10T21:18:21.045Z,5.33
2022-11-10T21:20:50.164Z,8.43
2022-11-10T21:23:21.879Z,7.07
2022-11-10T21:25:54.085Z,5.13
2022-11-10T21:28:22.412Z,7.87
2022-11-10T21:30:52.022Z,5.63
2022-11-10T21:33:20.865Z,5.57
2022-11-10T21:35:49.565Z,7.37
2022-11-10T21:38:17.749Z,7.60
2022-11-10T21:40:47.509Z,12.77
2022-11-10T21:43:15.731Z,7.60
2022-11-10T21:45:43.943Z,6.60
2022-11-10T21:48:13.571Z,6.30
2022-11-10T21:50:41.876Z,4.63
2022-11-10T21:53:10.561Z,5.57
2022-11-10T21:55:38.780Z,6.10
2022-11-10T21:58:07.057Z,7.63
2022-11-10T22:00:35.275Z,6.33
2022-11-10T22:03:05.621Z,8.60
2022-11-10T22:05:36.301Z,5.73
2022-11-10T22:08:05.324Z,4.97
2022-11-10T22:10:51.431Z,5.17
2022-11-10T22:13:37.450Z,9.70
2022-11-10T22:16:36.425Z,6.13
2022-11-10T22:19:05.553Z,7.27
2022-11-10T22:21:35.143Z,7.93
2022-11-10T22:24:21.503Z,7.23
2022-11-10T22:26:49.748Z,5.80
2022-11-10T22:29:18.011Z,6.77
2022-11-10T22:31:46.363Z,11.03
2022-11-10T22:34:15.379Z,10.00
2022-11-10T22:36:48.129Z,5.57
2022-11-10T22:39:16.541Z,7.37
2022-11-10T22:42:02.428Z,8.07
2022-11-10T22:44:30.720Z,7.63
2022-11-10T22:46:59.259Z,7.33
2022-11-10T22:49:27.520Z,8.43
2022-11-10T22:51:57.336Z,6.93
2022-11-10T22:54:25.700Z,7.80
2022-11-10T22:56:54.031Z,7.20
2022-11-10T22:59:22.734Z,6.07
2022-11-10T23:01:51.041Z,6.93
2022-11-10T23:04:19.334Z,7.13
2022-11-10T23:06:48.315Z,7.90
2022-11-10T23:09:18.239Z,7.77
2022-11-10T23:11:46.431Z,11.00
2022-11-10T23:14:14.735Z,10.23
2022-11-10T23:16:43.036Z,8.17
2022-11-10T23:19:12.588Z,7.80
2022-11-10T23:21:41.069Z,9.23
2022-11-10T23:24:09.785Z,4.73
2022-11-10T23:26:39.363Z,6.23
2022-11-10T23:29:08.651Z,5.23
2022-11-10T23:31:36.996Z,8.50
2022-11-10T23:34:08.093Z,9.50
2022-11-10T23:36:36.344Z,6.00
2022-11-10T23:39:04.604Z,5.87
2022-11-10T23:41:33.086Z,6.20
2022-11-10T23:44:02.766Z,6.33
2022-11-10T23:46:31.399Z,7.07
2022-11-10T23:48:59.732Z,6.83
2022-11-10T23:51:28.266Z,7.63
2022-11-10T23:53:56.720Z,7.60
2022-11-10T23:56:24.981Z,6.03
2022-11-10T23:58:53.495Z,7.63
